createdAt,value
2023-04-06T00:02:22.821Z,11.52
2023-04-06T00:04:53.675Z,11.00
2023-04-06T00:07:26.335Z,9.32
2023-04-06T00:09:57.396Z,7.70
2023-04-06T00:12:26.601Z,10.10
2023-04-06T00:14:55.031Z,10.63
2023-04-06T00:17:23.691Z,10.07
2023-04-06T00:19:54.466Z,11.70
2023-04-06T00:22:25.926Z,8.95
2023-04-06T00:24:54.414Z,11.82
2023-04-06T00:27:23.124Z,8.98
2023-04-06T00:29:51.610Z,14.32
2023-04-06T00:32:21.418Z,11.35
2023-04-06T00:34:53.204Z,11.80
2023-04-06T00:37:23.444Z,10.17
2023-04-06T00:39:53.267Z,11.02
2023-04-06T00:42:26.654Z,9.90
2023-04-06T00:44:56.578Z,13.85
2023-04-06T00:47:28.087Z,15.30
2023-04-06T00:49:57.492Z,10.00
2023-04-06T00:52:27.857Z,11.70
2023-04-06T00:54:56.377Z,11.05
2023-04-06T00:57:25.141Z,12.77
2023-04-06T00:59:59.326Z,13.48
2023-04-06T01:02:47.554Z,9.65
2023-04-06T01:05:19.467Z,14.13
2023-04-06T01:07:57.798Z,10.50
2023-04-06T01:10:32.817Z,11.10
2023-04-06T01:13:19.210Z,15.85
2023-04-06T01:16:01.095Z,15.88
2023-04-06T01:18:51.099Z,15.50
2023-04-06T01:21:27.537Z,13.27
2023-04-06T01:24:16.473Z,10.68
2023-04-06T01:26:58.655Z,12.13
2023-04-06T01:29:32.956Z,12.18
2023-04-06T01:32:03.376Z,12.65
2023-04-06T01:34:36.903Z,11.77
2023-04-06T01:37:07.393Z,14.10
2023-04-06T01:39:36.200Z,13.80
2023-04-06T01:42:09.932Z,14.40
2023-04-06T01:44:41.673Z,13.35
2023-04-06T01:47:14.789Z,13.10
2023-04-06T01:49:44.157Z,11.30
2023-04-06T01:52:16.730Z,15.85
2023-04-06T01:54:53.445Z,14.70
2023-04-06T01:57:49.852Z,18.13
2023-04-06T02:00:32.064Z,16.65
2023-04-06T02:03:24.118Z,15.82
2023-04-06T02:08:36.409Z,17.65
2023-04-06T02:11:05.824Z,16.58
2023-04-06T02:13:46.147Z,13.40
2023-04-06T02:16:16.962Z,15.90
2023-04-06T02:18:48.710Z,14.17
2023-04-06T02:21:21.103Z,12.07
2023-04-06T02:23:52.457Z,16.63
2023-04-06T02:26:22.034Z,18.20
2023-04-06T02:28:51.309Z,14.60
2023-04-06T02:31:25.070Z,14.82
2023-04-06T02:33:55.432Z,15.15
2023-04-06T02:36:24.748Z,12.57
2023-04-06T02:38:57.974Z,16.48
2023-04-06T02:41:30.224Z,10.95
2023-04-06T02:44:00.841Z,13.32
2023-04-06T02:46:39.959Z,14.77
2023-04-06T02:49:08.776Z,13.60
2023-04-06T02:51:38.296Z,17.42
2023-04-06T02:54:18.851Z,17.08
2023-04-06T02:56:49.660Z,19.17
2023-04-06T02:59:18.205Z,17.33
2023-04-06T03:01:58.950Z,22.15
2023-04-06T03:04:27.931Z,14.20
2023-04-06T03:07:00.112Z,14.70
2023-04-06T03:09:38.944Z,15.18
2023-04-06T03:12:10.520Z,14.30
2023-04-06T03:15:02.626Z,16.55
2023-04-06T03:17:35.505Z,12.43
2023-04-06T03:20:09.162Z,12.07
2023-04-06T03:22:41.644Z,13.30
2023-04-06T03:25:15.571Z,10.40
2023-04-06T03:27:46.824Z,13.13
2023-04-06T03:30:20.945Z,10.10
2023-04-06T03:33:08.659Z,11.98
2023-04-06T03:35:45.473Z,14.43
2023-04-06T03:38:18.174Z,13.15
2023-04-06T03:40:48.168Z,12.45
2023-04-06T03:43:18.869Z,11.23
2023-04-06T03:45:47.808Z,12.25
2023-04-06T03:48:19.153Z,15.52
2023-04-06T03:50:48.249Z,9.65
2023-04-06T03:53:17.757Z,14.18
2023-04-06T03:55:47.047Z,20.70
2023-04-06T03:58:17.869Z,12.00
2023-04-06T04:00:48.197Z,16.42
2023-04-06T04:03:31.713Z,14.18
2023-04-06T04:06:00.458Z,12.05
2023-04-06T04:08:33.148Z,10.13
2023-04-06T04:11:02.262Z,12.48
2023-04-06T04:13:32.822Z,8.65
2023-04-06T04:16:04.360Z,11.68
2023-04-06T04:18:35.267Z,8.15
2023-04-06T04:21:06.404Z,12.55
2023-04-06T04:23:37.369Z,11.70
2023-04-06T04:26:08.421Z,9.63
2023-04-06T04:28:41.246Z,13.35
2023-04-06T04:31:11.282Z,8.82
2023-04-06T04:33:43.169Z,11.30
2023-04-06T04:36:19.881Z,10.30
2023-04-06T04:38:52.039Z,10.20
2023-04-06T04:41:21.693Z,11.35
2023-04-06T04:43:51.536Z,13.13
2023-04-06T04:46:24.418Z,10.00
2023-04-06T04:48:55.254Z,7.93
2023-04-06T04:51:25.767Z,9.60
2023-04-06T04:54:22.087Z,9.25
2023-04-06T04:56:53.698Z,8.82
2023-04-06T04:59:37.161Z,10.23
2023-04-06T05:02:22.271Z,8.50
2023-04-06T05:05:03.104Z,8.77
2023-04-06T05:07:35.291Z,11.20
2023-04-06T05:10:08.002Z,9.18
2023-04-06T05:12:49.933Z,12.77
2023-04-06T05:15:19.834Z,15.20
2023-04-06T05:17:57.497Z,12.07
2023-04-06T05:20:36.856Z,9.63
2023-04-06T05:23:05.724Z,10.85
2023-04-06T05:25:36.797Z,7.80
2023-04-06T05:28:16.944Z,9.70
2023-04-06T05:30:48.593Z,9.32
2023-04-06T05:33:20.541Z,10.75
2023-04-06T05:36:14.414Z,9.35
2023-04-06T05:38:48.236Z,10.20
2023-04-06T05:41:37.373Z,11.90
2023-04-06T05:44:06.562Z,11.60
2023-04-06T05:46:36.554Z,8.35
2023-04-06T05:49:10.048Z,7.85
2023-04-06T05:51:40.917Z,9.70
2023-04-06T05:54:10.144Z,9.65
2023-04-06T05:56:39.487Z,8.48
2023-04-06T05:59:12.285Z,13.88
2023-04-06T06:01:41.858Z,13.75
2023-04-06T06:04:12.362Z,11.98
2023-04-06T06:06:45.863Z,9.70
2023-04-06T06:09:24.945Z,10.45
2023-04-06T06:12:14.476Z,9.93
2023-04-06T06:14:43.815Z,11.43
2023-04-06T06:17:19.337Z,9.25
2023-04-06T06:19:49.923Z,11.45
2023-04-06T06:22:18.952Z,9.55
2023-04-06T06:24:51.573Z,9.43
2023-04-06T06:27:23.268Z,9.90
2023-04-06T06:29:51.745Z,9.82
2023-04-06T06:32:21.679Z,9.35
2023-04-06T06:34:57.744Z,11.00
2023-04-06T06:37:30.579Z,10.82
2023-04-06T06:40:03.086Z,7.50
2023-04-06T06:42:50.416Z,6.38
2023-04-06T06:45:30.425Z,9.90
2023-04-06T06:48:02.733Z,19.73
2023-04-06T06:50:36.539Z,9.35
2023-04-06T06:53:11.878Z,9.88
2023-04-06T06:55:41.314Z,16.33
2023-04-06T06:58:12.532Z,7.25
2023-04-06T07:00:48.148Z,9.90
2023-04-06T07:03:32.972Z,9.38
2023-04-06T07:06:02.913Z,9.73
2023-04-06T07:08:33.759Z,8.25
2023-04-06T07:11:03.041Z,6.25
2023-04-06T07:13:33.486Z,9.18
2023-04-06T07:16:05.012Z,10.63
2023-04-06T07:18:36.543Z,9.70
2023-04-06T07:21:06.815Z,7.90
2023-04-06T07:23:43.057Z,12.43
2023-04-06T07:26:11.784Z,8.95
2023-04-06T07:28:43.200Z,11.00
2023-04-06T07:31:13.866Z,10.93
2023-04-06T07:33:45.926Z,7.55
2023-04-06T07:36:15.769Z,11.40
2023-04-06T07:39:01.541Z,7.95
2023-04-06T07:41:32.157Z,7.05
2023-04-06T07:44:00.672Z,12.57
2023-04-06T07:46:30.417Z,10.75
2023-04-06T07:49:00.023Z,14.50
2023-04-06T07:51:33.033Z,11.60
2023-04-06T07:54:02.075Z,13.15
2023-04-06T07:56:33.464Z,11.88
2023-04-06T07:59:03.483Z,8.05
2023-04-06T08:01:34.900Z,10.65
2023-04-06T08:04:04.373Z,10.05
2023-04-06T08:06:37.529Z,9.52
2023-04-06T08:09:06.429Z,10.52
2023-04-06T08:11:35.405Z,6.40
2023-04-06T08:14:06.785Z,8.45
2023-04-06T08:16:36.960Z,9.93
2023-04-06T08:19:14.295Z,11.20
2023-04-06T08:21:43.600Z,9.68
2023-04-06T08:24:20.857Z,10.38
2023-04-06T08:26:50.197Z,13.50
2023-04-06T08:29:25.085Z,13.10
2023-04-06T08:31:56.019Z,11.93
2023-04-06T08:34:26.386Z,13.10
2023-04-06T08:36:56.031Z,12.10
2023-04-06T08:39:26.688Z,10.77
2023-04-06T08:42:00.848Z,13.48
2023-04-06T08:44:33.650Z,11.52
2023-04-06T08:47:08.582Z,11.55
2023-04-06T08:49:42.737Z,10.60
2023-04-06T08:52:12.275Z,15.82
2023-04-06T08:54:44.242Z,11.10
2023-04-06T08:57:15.621Z,11.68
2023-04-06T08:59:44.535Z,13.48
2023-04-06T09:02:19.161Z,10.32
2023-04-06T09:04:54.842Z,10.50
2023-04-06T09:07:24.963Z,10.88
2023-04-06T09:09:54.357Z,13.80
2023-04-06T09:12:30.327Z,10.05
2023-04-06T09:14:59.340Z,12.38
2023-04-06T09:17:34.556Z,14.27
2023-04-06T09:20:04.568Z,10.57
2023-04-06T09:22:39.972Z,10.63
2023-04-06T09:25:12.649Z,13.73
2023-04-06T09:27:46.738Z,16.67
2023-04-06T09:30:17.649Z,13.13
2023-04-06T09:33:05.435Z,13.80
2023-04-06T09:35:51.634Z,15.30
2023-04-06T09:38:25.224Z,15.75
2023-04-06T09:41:01.336Z,15.60
2023-04-06T09:43:32.399Z,18.05
2023-04-06T09:46:03.960Z,18.10
2023-04-06T09:48:36.609Z,13.37
2023-04-06T09:51:06.432Z,24.20
2023-04-06T09:53:39.141Z,17.67
2023-04-06T09:56:12.996Z,17.08
2023-04-06T09:58:43.558Z,18.08
2023-04-06T10:01:14.205Z,18.15
2023-04-06T10:03:45.189Z,14.15
2023-04-06T10:06:15.037Z,12.10
2023-04-06T10:08:44.941Z,14.50
2023-04-06T10:11:13.628Z,15.57
2023-04-06T10:13:45.257Z,14.15
2023-04-06T10:16:15.463Z,15.30
2023-04-06T10:18:48.967Z,14.10
2023-04-06T10:21:21.869Z,15.90
2023-04-06T10:23:54.490Z,14.95
2023-04-06T10:26:23.975Z,16.30
2023-04-06T10:28:55.754Z,18.83
2023-04-06T10:31:28.560Z,17.50
2023-04-06T10:33:58.614Z,15.35
2023-04-06T10:36:28.524Z,16.83
2023-04-06T10:39:01.346Z,19.55
2023-04-06T10:41:36.512Z,19.27
2023-04-06T10:44:08.355Z,15.73
2023-04-06T10:46:37.923Z,18.77
2023-04-06T10:49:13.979Z,14.93
2023-04-06T10:51:46.307Z,22.90
2023-04-06T10:54:15.337Z,18.85
2023-04-06T10:56:43.819Z,18.85
2023-04-06T10:59:13.055Z,14.10
2023-04-06T11:01:46.905Z,15.63
2023-04-06T11:04:20.579Z,16.08
2023-04-06T11:06:51.188Z,15.63
2023-04-06T11:09:33.470Z,19.08
2023-04-06T11:12:07.988Z,21.88
2023-04-06T11:14:43.249Z,24.42
2023-04-06T11:17:12.743Z,19.00
2023-04-06T11:19:44.333Z,21.83
2023-04-06T11:22:14.905Z,20.42
2023-04-06T11:24:46.258Z,21.40
2023-04-06T11:27:16.053Z,19.45
2023-04-06T11:29:47.038Z,16.70
2023-04-06T11:32:24.591Z,19.92
2023-04-06T11:34:53.213Z,14.60
2023-04-06T11:37:22.027Z,20.02
2023-04-06T11:39:52.773Z,18.10
2023-04-06T11:42:26.437Z,22.83
2023-04-06T11:45:03.433Z,19.38
2023-04-06T11:47:38.583Z,22.15
2023-04-06T11:50:10.343Z,21.60
2023-04-06T11:52:47.591Z,19.92
2023-04-06T11:55:18.252Z,23.02
2023-04-06T11:57:52.550Z,20.70
2023-04-06T12:00:24.130Z,22.42
2023-04-06T12:03:11.871Z,18.67
2023-04-06T12:05:46.268Z,20.27
2023-04-06T12:08:15.413Z,19.67
2023-04-06T12:10:47.016Z,17.67
2023-04-06T12:13:15.457Z,23.60
2023-04-06T12:15:44.132Z,16.90
2023-04-06T12:18:13.841Z,18.80
2023-04-06T12:20:42.444Z,21.13
2023-04-06T12:23:14.422Z,23.70
2023-04-06T12:25:44.532Z,22.23
2023-04-06T12:28:13.201Z,18.25
2023-04-06T12:30:42.799Z,21.00
2023-04-06T12:33:20.938Z,16.58
2023-04-06T12:35:50.671Z,20.45
2023-04-06T12:38:20.114Z,24.23
2023-04-06T12:40:49.027Z,18.63
2023-04-06T12:43:18.450Z,29.38
2023-04-06T12:45:50.312Z,18.27
2023-04-06T12:48:20.377Z,15.80
2023-04-06T12:50:55.878Z,17.70
2023-04-06T12:53:24.593Z,17.67
2023-04-06T12:55:54.705Z,18.13
2023-04-06T12:58:27.677Z,14.32
2023-04-06T13:00:56.964Z,15.60
2023-04-06T13:03:45.450Z,14.57
2023-04-06T13:06:15.765Z,16.08
2023-04-06T13:08:45.932Z,11.35
2023-04-06T13:11:21.554Z,11.00
2023-04-06T13:13:50.638Z,12.77
2023-04-06T13:16:22.191Z,10.95
2023-04-06T13:18:51.232Z,13.43
2023-04-06T13:21:22.743Z,10.40
2023-04-06T13:23:53.561Z,10.23
2023-04-06T13:26:22.508Z,10.60
2023-04-06T13:28:51.222Z,9.60
2023-04-06T13:31:21.130Z,10.40
2023-04-06T13:33:58.257Z,8.68
2023-04-06T13:36:31.572Z,14.82
2023-04-06T13:39:03.172Z,16.10
2023-04-06T13:41:34.024Z,10.32
2023-04-06T13:44:04.740Z,11.88
2023-04-06T13:46:38.299Z,10.68
2023-04-06T13:49:09.222Z,12.52
2023-04-06T13:51:39.266Z,8.85
2023-04-06T13:54:08.651Z,9.60
2023-04-06T13:56:37.406Z,9.82
2023-04-06T13:59:06.644Z,9.27
2023-04-06T14:01:39.362Z,6.97
2023-04-06T14:04:08.121Z,11.25
2023-04-06T14:06:40.674Z,8.55
2023-04-06T14:09:09.656Z,8.82
2023-04-06T14:11:41.925Z,10.93
2023-04-06T14:14:10.736Z,7.68
2023-04-06T14:16:40.989Z,6.40
2023-04-06T14:19:10.632Z,9.02
2023-04-06T14:21:42.532Z,9.60
2023-04-06T14:24:11.973Z,8.57
2023-04-06T14:26:40.622Z,7.80
2023-04-06T14:29:09.664Z,9.65
2023-04-06T14:31:40.531Z,12.52
2023-04-06T14:34:09.356Z,14.30
2023-04-06T14:36:42.056Z,9.73
2023-04-06T14:39:11.393Z,10.73
2023-04-06T14:41:40.620Z,15.27
2023-04-06T14:44:13.183Z,8.50
2023-04-06T14:46:45.589Z,7.88
2023-04-06T14:49:17.796Z,9.65
2023-04-06T14:51:47.431Z,8.27
2023-04-06T14:54:16.778Z,11.20
2023-04-06T14:56:48.940Z,8.23
2023-04-06T14:59:18.412Z,10.32
2023-04-06T15:01:47.876Z,7.40
2023-04-06T15:04:17.187Z,7.32
2023-04-06T15:06:48.887Z,10.70
2023-04-06T15:09:20.382Z,10.43
2023-04-06T15:11:49.175Z,9.32
2023-04-06T15:14:18.214Z,9.02
2023-04-06T15:16:47.661Z,9.48
2023-04-06T15:19:23.913Z,11.05
2023-04-06T15:21:52.586Z,17.10
2023-04-06T15:24:21.735Z,21.92
2023-04-06T15:26:51.322Z,10.32
2023-04-06T15:29:19.882Z,11.35
2023-04-06T15:31:48.939Z,10.77
2023-04-06T15:34:21.238Z,10.18
2023-04-06T15:36:52.495Z,12.32
2023-04-06T15:39:22.279Z,10.30
2023-04-06T15:41:51.240Z,8.57
2023-04-06T15:44:23.393Z,9.38
2023-04-06T15:46:53.625Z,10.35
2023-04-06T15:49:29.625Z,6.70
2023-04-06T15:51:58.646Z,9.27
2023-04-06T15:54:32.773Z,9.45
2023-04-06T15:57:08.119Z,8.77
2023-04-06T15:59:37.948Z,7.43
2023-04-06T16:02:06.308Z,7.75
2023-04-06T16:04:37.015Z,6.03
2023-04-06T16:07:07.835Z,7.75
2023-04-06T16:09:36.465Z,5.07
2023-04-06T16:12:06.938Z,6.60
2023-04-06T16:14:36.341Z,9.13
2023-04-06T16:17:08.092Z,7.60
2023-04-06T16:19:37.409Z,10.40
2023-04-06T16:22:07.165Z,5.70
2023-04-06T16:24:38.620Z,9.57
2023-04-06T16:27:08.999Z,8.38
2023-04-06T16:29:37.617Z,5.10
2023-04-06T16:32:06.803Z,7.78
2023-04-06T16:34:36.641Z,6.80
2023-04-06T16:37:06.043Z,8.35
2023-04-06T16:39:36.397Z,9.13
2023-04-06T16:42:04.952Z,10.63
2023-04-06T16:44:41.136Z,10.43
2023-04-06T16:47:09.665Z,26.58
2023-04-06T16:49:40.703Z,10.68
2023-04-06T16:52:11.594Z,10.23
2023-04-06T16:54:40.108Z,8.02
2023-04-06T16:57:09.261Z,12.40
2023-04-06T16:59:40.131Z,9.60
2023-04-06T17:02:11.615Z,13.57
2023-04-06T17:04:43.468Z,9.20
2023-04-06T17:07:12.132Z,8.27
2023-04-06T17:09:43.003Z,9.77
2023-04-06T17:12:13.552Z,10.18
2023-04-06T17:14:42.154Z,11.57
2023-04-06T17:17:11.057Z,10.88
2023-04-06T17:19:42.558Z,12.98
2023-04-06T17:22:14.479Z,8.38
2023-04-06T17:24:42.913Z,10.48
2023-04-06T17:27:11.873Z,11.43
2023-04-06T17:29:43.109Z,9.68
2023-04-06T17:32:12.145Z,13.80
2023-04-06T17:34:40.956Z,12.18
2023-04-06T17:37:10.680Z,9.80
2023-04-06T17:39:39.391Z,7.50
2023-04-06T17:42:11.449Z,14.25
2023-04-06T17:44:41.397Z,14.52
2023-04-06T17:47:12.671Z,8.13
2023-04-06T17:49:41.229Z,12.98
2023-04-06T17:52:10.389Z,10.18
2023-04-06T17:54:38.938Z,15.52
2023-04-06T17:57:08.601Z,11.18
2023-04-06T17:59:37.692Z,11.27
2023-04-06T18:02:09.442Z,16.27
2023-04-06T18:04:38.442Z,12.82
2023-04-06T18:07:08.171Z,11.63
2023-04-06T18:09:37.101Z,11.48
2023-04-06T18:12:08.792Z,11.13
2023-04-06T18:14:39.832Z,14.88
2023-04-06T18:17:08.244Z,15.52
2023-04-06T18:19:36.848Z,11.45
2023-04-06T18:22:12.779Z,16.63
2023-04-06T18:24:43.994Z,13.02
2023-04-06T18:27:14.204Z,10.70
2023-04-06T18:29:45.210Z,15.15
2023-04-06T18:32:17.458Z,12.63
2023-04-06T18:34:48.873Z,13.75
2023-04-06T18:37:17.207Z,12.70
2023-04-06T18:39:46.764Z,26.55
2023-04-06T18:42:18.095Z,25.20
2023-04-06T18:44:47.907Z,10.45
2023-04-06T18:47:16.809Z,13.25
2023-04-06T18:49:45.334Z,13.80
2023-04-06T18:52:14.142Z,12.70
2023-04-06T18:54:44.788Z,15.63
2023-04-06T18:57:13.984Z,17.17
2023-04-06T18:59:45.911Z,17.70
2023-04-06T19:02:16.412Z,14.93
2023-04-06T19:04:44.984Z,16.80
2023-04-06T19:07:15.399Z,16.85
2023-04-06T19:09:44.577Z,15.18
2023-04-06T19:12:13.752Z,15.30
2023-04-06T19:14:43.059Z,15.73
2023-04-06T19:17:14.044Z,22.42
2023-04-06T19:19:42.521Z,16.80
2023-04-06T19:22:13.125Z,16.00
2023-04-06T19:24:42.864Z,16.67
2023-04-06T19:27:13.544Z,19.75
2023-04-06T19:29:42.150Z,18.48
2023-04-06T19:32:11.834Z,16.23
2023-04-06T19:34:40.806Z,13.05
2023-04-06T19:37:09.645Z,20.75
2023-04-06T19:39:38.459Z,16.52
2023-04-06T19:42:07.052Z,12.23
2023-04-06T19:44:41.674Z,14.23
2023-04-06T19:47:19.234Z,14.80
2023-04-06T19:49:48.349Z,16.70
2023-04-06T19:52:17.954Z,17.25
2023-04-06T19:54:48.540Z,16.27
2023-04-06T19:57:18.545Z,10.80
2023-04-06T19:59:47.175Z,15.30
2023-04-06T20:02:15.846Z,11.13
2023-04-06T20:04:44.409Z,12.45
2023-04-06T20:07:13.714Z,15.70
2023-04-06T20:09:42.261Z,13.85
2023-04-06T20:12:11.145Z,17.27
2023-04-06T20:14:44.187Z,7.07
2023-04-06T20:17:12.910Z,14.68
2023-04-06T20:19:41.323Z,12.40
2023-04-06T20:22:10.365Z,10.05
2023-04-06T20:24:41.196Z,20.13
2023-04-06T20:27:14.136Z,14.60
2023-04-06T20:29:43.092Z,14.45
2023-04-06T20:32:13.040Z,15.15
2023-04-06T20:34:44.904Z,14.40
2023-04-06T20:37:13.401Z,13.73
2023-04-06T20:39:42.291Z,14.68
2023-04-06T20:42:11.078Z,14.60
2023-04-06T20:44:41.260Z,14.73
2023-04-06T20:47:10.246Z,14.90
2023-04-06T20:49:39.410Z,17.50
2023-04-06T20:52:08.857Z,14.52
2023-04-06T20:54:37.557Z,14.93
2023-04-06T20:57:09.421Z,15.65
2023-04-06T20:59:38.130Z,16.63
2023-04-06T21:02:06.773Z,12.82
2023-04-06T21:04:38.739Z,11.60
2023-04-06T21:07:07.598Z,17.75
2023-04-06T21:09:38.009Z,15.95
2023-04-06T21:12:07.050Z,14.82
2023-04-06T21:14:37.551Z,17.17
2023-04-06T21:17:09.618Z,13.73
2023-04-06T21:19:38.761Z,10.88
2023-04-06T21:22:07.410Z,18.92
2023-04-06T21:24:37.679Z,16.45
2023-04-06T21:27:06.004Z,17.42
2023-04-06T21:29:39.476Z,12.82
2023-04-06T21:32:08.310Z,15.80
2023-04-06T21:34:39.658Z,17.02
2023-04-06T21:37:10.205Z,15.73
2023-04-06T21:39:39.062Z,16.48
2023-04-06T21:42:07.458Z,17.25
2023-04-06T21:44:37.984Z,15.35
2023-04-06T21:47:06.705Z,18.25
2023-04-06T21:49:39.348Z,17.15
2023-04-06T21:52:08.143Z,16.15
2023-04-06T21:54:38.842Z,14.98
2023-04-06T21:57:07.484Z,18.25
2023-04-06T21:59:39.427Z,20.88
2023-04-06T22:02:08.164Z,20.77
2023-04-06T22:04:37.787Z,17.77
2023-04-06T22:07:06.596Z,23.00
2023-04-06T22:09:35.453Z,19.92
2023-04-06T22:12:04.752Z,18.27
2023-04-06T22:14:38.408Z,19.35
2023-04-06T22:17:11.602Z,23.13
2023-04-06T22:19:40.796Z,20.98
2023-04-06T22:22:09.359Z,24.42
2023-04-06T22:24:38.316Z,20.17
2023-04-06T22:27:12.205Z,22.30
2023-04-06T22:29:43.230Z,22.48
2023-04-06T22:32:14.035Z,25.20
2023-04-06T22:34:44.235Z,25.08
2023-04-06T22:37:12.760Z,23.33
2023-04-06T22:39:42.346Z,25.88
2023-04-06T22:42:10.723Z,25.38
2023-04-06T22:44:40.666Z,26.17
2023-04-06T22:47:11.816Z,34.17
2023-04-06T22:49:41.487Z,30.25
2023-04-06T22:52:17.213Z,26.98
2023-04-06T22:54:46.013Z,30.80
2023-04-06T22:57:15.128Z,27.55
2023-04-06T22:59:43.448Z,28.75
2023-04-06T23:02:11.872Z,27.67
2023-04-06T23:04:40.822Z,25.25
2023-04-06T23:07:11.913Z,29.85
2023-04-06T23:09:41.128Z,26.00
2023-04-06T23:12:09.515Z,29.55
2023-04-06T23:14:39.582Z,25.05
2023-04-06T23:17:10.826Z,29.45
2023-04-06T23:19:40.483Z,29.23
2023-04-06T23:22:09.649Z,32.05
2023-04-06T23:24:38.489Z,29.80
2023-04-06T23:27:07.085Z,30.63
2023-04-06T23:29:35.980Z,30.92
2023-04-06T23:32:04.979Z,31.65
2023-04-06T23:34:35.021Z,30.17
2023-04-06T23:37:04.419Z,33.33
2023-04-06T23:39:33.782Z,33.88
2023-04-06T23:42:02.562Z,28.60
2023-04-06T23:44:39.590Z,33.50
2023-04-06T23:47:10.736Z,32.17
2023-04-06T23:49:40.422Z,29.02
2023-04-06T23:52:09.836Z,30.75
2023-04-06T23:54:38.572Z,30.60
2023-04-06T23:57:07.958Z,31.67
2023-04-06T23:59:37.095Z,32.67
